createdAt,value
2019-03-18T00:00:00.638Z,10.60
2019-03-18T00:04:05.565Z,10.60
2019-03-18T00:08:10.604Z,10.80
2019-03-18T00:12:15.507Z,10.70
2019-03-18T00:16:22.540Z,10.60
2019-03-18T00:20:27.434Z,10.50
2019-03-18T00:24:32.322Z,10.40
2019-03-18T00:28:45.198Z,10.40
2019-03-18T00:32:50.097Z,10.40
2019-03-18T00:36:57.254Z,10.00
2019-03-18T00:41:02.129Z,9.70
2019-03-18T00:45:15.145Z,9.50
2019-03-18T00:49:19.702Z,9.20
2019-03-18T00:53:24.619Z,9.30
2019-03-18T00:57:47.961Z,9.70
2019-03-18T01:01:52.857Z,10.00
2019-03-18T01:05:57.781Z,10.00
2019-03-18T01:10:02.645Z,10.10
2019-03-18T01:14:07.574Z,10.20
2019-03-18T01:18:12.576Z,10.10
2019-03-18T01:22:17.827Z,10.00
2019-03-18T01:26:22.723Z,10.00
2019-03-18T01:30:29.907Z,10.00
2019-03-18T01:34:34.865Z,9.90
2019-03-18T01:38:39.786Z,9.80
2019-03-18T01:42:44.747Z,9.80
2019-03-18T01:46:49.656Z,9.70
2019-03-18T01:50:54.550Z,9.70
2019-03-18T01:54:59.779Z,9.70
2019-03-18T01:59:04.654Z,9.50
2019-03-18T02:03:21.750Z,9.50
2019-03-18T02:07:26.616Z,9.40
2019-03-18T02:11:31.493Z,9.30
2019-03-18T02:15:38.446Z,9.20
2019-03-18T02:19:43.332Z,8.90
2019-03-18T02:23:54.124Z,8.20
2019-03-18T02:27:59.267Z,7.60
2019-03-18T02:32:06.258Z,7.30
2019-03-18T02:36:19.215Z,7.10
2019-03-18T02:40:24.171Z,7.00
2019-03-18T02:44:40.307Z,7.00
2019-03-18T02:48:45.214Z,7.00
2019-03-18T02:52:51.214Z,6.90
2019-03-18T02:56:58.318Z,6.90
2019-03-18T03:01:03.304Z,6.90
2019-03-18T03:05:09.810Z,6.80
2019-03-18T03:09:14.727Z,6.60
2019-03-18T03:13:19.708Z,6.30
2019-03-18T03:17:26.782Z,6.00
2019-03-18T03:21:32.866Z,5.80
2019-03-18T03:25:38.820Z,5.90
2019-03-18T03:29:43.713Z,5.80
2019-03-18T03:33:48.808Z,5.80
2019-03-18T03:37:53.684Z,5.90
2019-03-18T03:41:58.718Z,5.80
2019-03-18T03:46:08.062Z,5.70
2019-03-18T03:50:13.194Z,5.80
2019-03-18T03:54:18.205Z,5.80
2019-03-18T03:58:23.219Z,5.90
2019-03-18T04:02:28.253Z,5.90
2019-03-18T04:06:33.491Z,5.90
2019-03-18T04:10:38.416Z,6.00
2019-03-18T04:14:43.482Z,6.10
2019-03-18T04:18:48.364Z,6.00
2019-03-18T04:22:56.635Z,5.90
2019-03-18T04:27:01.573Z,5.80
2019-03-18T04:31:13.478Z,5.60
2019-03-18T04:35:18.530Z,5.60
2019-03-18T04:39:27.713Z,5.40
2019-03-18T04:43:32.573Z,5.40
2019-03-18T04:47:44.609Z,5.40
2019-03-18T04:51:49.510Z,5.40
2019-03-18T04:55:54.570Z,5.50
2019-03-18T04:59:59.465Z,5.40
2019-03-18T05:04:04.613Z,5.40
2019-03-18T05:08:09.479Z,5.40
2019-03-18T05:12:14.382Z,5.40
2019-03-18T05:16:19.354Z,5.40
2019-03-18T05:20:24.208Z,5.40
2019-03-18T05:24:29.317Z,5.40
2019-03-18T05:28:34.216Z,5.40
2019-03-18T05:32:39.231Z,5.30
2019-03-18T05:36:44.130Z,5.30
2019-03-18T05:40:50.412Z,5.30
2019-03-18T05:44:55.297Z,5.40
2019-03-18T05:49:00.250Z,5.40
2019-03-18T05:53:05.176Z,5.50
2019-03-18T05:57:10.075Z,5.50
2019-03-18T06:01:15.059Z,5.50
2019-03-18T06:05:19.953Z,5.60
2019-03-18T06:09:24.850Z,5.60
2019-03-18T06:13:29.711Z,5.70
2019-03-18T06:17:35.049Z,5.70
2019-03-18T06:21:40.563Z,5.80
2019-03-18T06:25:53.840Z,5.90
2019-03-18T06:29:58.890Z,5.90
2019-03-18T06:34:03.871Z,6.00
2019-03-18T06:38:08.841Z,6.10
2019-03-18T06:42:13.823Z,6.00
2019-03-18T06:46:19.365Z,6.10
2019-03-18T06:50:24.504Z,6.10
2019-03-18T06:54:29.541Z,6.10
2019-03-18T06:58:34.798Z,6.10
2019-03-18T07:02:39.745Z,6.10
2019-03-18T07:06:44.754Z,6.20
2019-03-18T07:10:49.826Z,6.30
2019-03-18T07:14:54.789Z,6.40
2019-03-18T07:18:59.719Z,6.20
2019-03-18T07:23:04.628Z,6.10
2019-03-18T07:27:09.679Z,6.10
2019-03-18T07:31:14.617Z,6.00
2019-03-18T07:35:19.792Z,6.00
2019-03-18T07:39:24.749Z,6.00
2019-03-18T07:43:29.692Z,6.00
2019-03-18T07:47:34.738Z,6.10
2019-03-18T07:51:39.637Z,6.30
2019-03-18T07:55:44.667Z,6.20
2019-03-18T07:59:49.888Z,6.20
2019-03-18T08:03:54.917Z,6.30
2019-03-18T08:08:00.012Z,6.40
2019-03-18T08:12:05.098Z,6.20
2019-03-18T08:16:10.129Z,6.10
2019-03-18T08:20:15.350Z,6.20
2019-03-18T08:24:21.519Z,6.30
2019-03-18T08:28:27.635Z,6.20
2019-03-18T08:32:32.519Z,6.30
2019-03-18T08:36:37.647Z,6.40
2019-03-18T08:40:43.195Z,6.40
2019-03-18T08:44:49.889Z,6.50
2019-03-18T08:48:56.021Z,6.70
2019-03-18T08:53:02.959Z,6.90
2019-03-18T08:57:08.532Z,7.10
2019-03-18T09:01:14.579Z,7.10
2019-03-18T09:05:19.893Z,7.10
2019-03-18T09:09:25.416Z,7.00
2019-03-18T09:13:32.131Z,6.80
2019-03-18T09:17:38.889Z,6.70
2019-03-18T09:21:45.066Z,6.90
2019-03-18T09:25:50.541Z,7.00
2019-03-18T09:29:55.616Z,7.10
2019-03-18T09:34:00.694Z,6.90
2019-03-18T09:38:05.637Z,7.10
2019-03-18T09:42:11.036Z,6.80
2019-03-18T09:46:16.375Z,6.90
2019-03-18T09:50:21.825Z,6.90
2019-03-18T09:54:27.109Z,7.10
2019-03-18T09:58:32.375Z,7.10
2019-03-18T10:02:37.676Z,7.20
2019-03-18T10:06:43.403Z,7.10
2019-03-18T10:10:48.979Z,7.20
2019-03-18T10:14:54.334Z,6.90
2019-03-18T10:18:59.542Z,6.80
2019-03-18T10:23:05.059Z,6.80
2019-03-18T10:27:10.208Z,6.90
2019-03-18T10:31:15.637Z,6.90
2019-03-18T10:35:21.044Z,6.90
2019-03-18T10:39:26.332Z,6.70
2019-03-18T10:43:31.490Z,6.60
2019-03-18T10:47:36.772Z,6.30
2019-03-18T10:51:41.962Z,6.10
2019-03-18T10:56:06.925Z,6.30
2019-03-18T11:00:07.638Z,6.40
2019-03-18T11:04:20.467Z,6.50
2019-03-18T11:08:29.039Z,6.40
2019-03-18T11:12:34.432Z,6.20
2019-03-18T11:16:39.674Z,6.00
2019-03-18T11:20:45.003Z,6.10
2019-03-18T11:24:50.289Z,6.30
2019-03-18T11:28:58.571Z,6.40
2019-03-18T11:33:06.456Z,6.50
2019-03-18T11:37:12.057Z,6.60
2019-03-18T11:41:18.630Z,6.70
2019-03-18T11:45:24.148Z,6.80
2019-03-18T11:49:39.149Z,6.80
2019-03-18T11:53:36.654Z,7.10
2019-03-18T11:57:41.911Z,7.30
2019-03-18T12:01:47.210Z,6.90
2019-03-18T12:05:53.696Z,7.20
2019-03-18T12:09:59.110Z,7.10
2019-03-18T12:14:04.415Z,7.10
2019-03-18T12:18:09.673Z,7.30
2019-03-18T12:22:15.135Z,7.00
2019-03-18T12:26:21.171Z,6.90
2019-03-18T12:30:26.594Z,7.10
2019-03-18T12:34:32.851Z,7.20
2019-03-18T12:38:41.918Z,7.60
2019-03-18T12:42:47.202Z,7.70
2019-03-18T12:46:52.782Z,7.50
2019-03-18T12:51:00.874Z,7.50
2019-03-18T12:55:06.840Z,7.60
2019-03-18T12:59:12.202Z,7.90
2019-03-18T13:03:18.066Z,7.80
2019-03-18T13:07:23.431Z,7.80
2019-03-18T13:11:28.711Z,8.50
2019-03-18T13:15:34.093Z,8.50
2019-03-18T13:19:39.271Z,8.20
2019-03-18T13:23:44.552Z,7.90
2019-03-18T13:27:50.107Z,7.60
2019-03-18T13:31:55.683Z,7.80
2019-03-18T13:36:01.040Z,7.90
2019-03-18T13:40:06.788Z,8.10
2019-03-18T13:44:12.005Z,8.30
2019-03-18T13:48:17.451Z,8.50
2019-03-18T13:52:22.730Z,8.70
2019-03-18T13:56:30.065Z,8.60
2019-03-18T14:00:37.668Z,8.20
2019-03-18T14:04:42.977Z,7.90
2019-03-18T14:08:49.306Z,7.70
2019-03-18T14:12:55.263Z,7.60
2019-03-18T14:17:00.692Z,7.90
2019-03-18T14:21:06.088Z,8.10
2019-03-18T14:25:12.492Z,8.40
2019-03-18T14:29:17.830Z,8.80
2019-03-18T14:33:23.230Z,8.60
2019-03-18T14:37:28.909Z,8.60
2019-03-18T14:41:34.194Z,8.30
2019-03-18T14:45:39.713Z,8.00
2019-03-18T14:49:46.461Z,8.00
2019-03-18T14:53:51.872Z,8.00
2019-03-18T14:57:57.563Z,7.90
2019-03-18T15:02:04.950Z,7.90
2019-03-18T15:06:10.195Z,7.90
2019-03-18T15:10:16.927Z,7.70
2019-03-18T15:14:22.202Z,7.60
2019-03-18T15:18:32.004Z,7.60
2019-03-18T15:22:37.748Z,7.50
2019-03-18T15:26:45.706Z,7.40
2019-03-18T15:30:52.126Z,7.20
2019-03-18T15:34:57.454Z,7.30
2019-03-18T15:39:05.632Z,7.40
2019-03-18T15:43:10.662Z,7.60
2019-03-18T15:47:16.088Z,7.80
2019-03-18T15:51:21.572Z,7.70
2019-03-18T15:55:27.915Z,7.70
2019-03-18T15:59:33.261Z,7.40
2019-03-18T16:03:38.538Z,7.20
2019-03-18T16:07:44.051Z,7.00
2019-03-18T16:11:49.319Z,7.00
2019-03-18T16:15:56.134Z,7.10
2019-03-18T16:20:05.213Z,7.00
2019-03-18T16:24:13.336Z,6.80
2019-03-18T16:28:31.553Z,6.70
2019-03-18T16:32:33.734Z,6.70
2019-03-18T16:36:39.073Z,6.40
2019-03-18T16:40:44.411Z,6.30
2019-03-18T16:44:49.773Z,6.30
2019-03-18T16:48:55.113Z,6.10
2019-03-18T16:53:01.098Z,6.10
2019-03-18T16:57:09.060Z,5.90
2019-03-18T17:01:14.584Z,5.80
2019-03-18T17:05:23.177Z,5.70
2019-03-18T17:09:40.834Z,5.60
2019-03-18T17:13:45.883Z,5.60
2019-03-18T17:17:51.291Z,5.60
2019-03-18T17:21:56.663Z,5.50
2019-03-18T17:26:02.178Z,5.30
2019-03-18T17:30:09.809Z,5.30
2019-03-18T17:34:15.151Z,5.30
2019-03-18T17:38:20.383Z,5.20
2019-03-18T17:42:26.030Z,5.20
2019-03-18T17:46:31.375Z,5.10
2019-03-18T17:50:38.751Z,5.10
2019-03-18T17:54:44.844Z,5.10
2019-03-18T17:58:50.272Z,5.00
2019-03-18T18:02:55.425Z,4.90
2019-03-18T18:07:00.675Z,4.70
2019-03-18T18:11:05.874Z,4.80
2019-03-18T18:15:11.170Z,4.80
2019-03-18T18:19:16.364Z,4.70
2019-03-18T18:23:22.482Z,4.70
2019-03-18T18:27:27.613Z,4.70
2019-03-18T18:31:32.867Z,4.60
2019-03-18T18:35:38.385Z,4.50
2019-03-18T18:39:43.582Z,4.50
2019-03-18T18:43:49.031Z,4.50
2019-03-18T18:47:54.325Z,4.50
2019-03-18T18:51:59.566Z,4.50
2019-03-18T18:56:06.799Z,4.40
2019-03-18T19:00:14.499Z,4.40
2019-03-18T19:04:20.581Z,4.30
2019-03-18T19:08:26.311Z,4.30
2019-03-18T19:12:31.511Z,4.30
2019-03-18T19:16:36.899Z,4.20
2019-03-18T19:20:42.230Z,4.20
2019-03-18T19:24:52.865Z,4.20
2019-03-18T19:29:08.562Z,4.10
2019-03-18T19:33:20.892Z,4.10
2019-03-18T19:37:29.480Z,4.10
2019-03-18T19:41:40.340Z,4.00
2019-03-18T19:45:49.005Z,4.00
2019-03-18T19:50:03.454Z,4.00
2019-03-18T19:54:09.123Z,3.90
2019-03-18T19:58:14.795Z,3.80
2019-03-18T20:02:19.942Z,3.80
2019-03-18T20:06:24.958Z,3.80
2019-03-18T20:10:29.871Z,3.60
2019-03-18T20:14:35.327Z,3.70
2019-03-18T20:18:40.195Z,3.60
2019-03-18T20:22:45.946Z,3.40
2019-03-18T20:26:51.050Z,3.40
2019-03-18T20:30:56.838Z,3.40
2019-03-18T20:35:01.805Z,3.30
2019-03-18T20:39:08.988Z,3.30
2019-03-18T20:43:14.119Z,3.30
2019-03-18T20:47:19.614Z,3.30
2019-03-18T20:51:24.939Z,3.30
2019-03-18T20:55:30.223Z,3.10
2019-03-18T20:59:35.951Z,3.20
2019-03-18T21:03:41.829Z,3.30
2019-03-18T21:07:47.469Z,3.30
2019-03-18T21:11:52.850Z,3.20
2019-03-18T21:15:58.279Z,3.20
2019-03-18T21:20:03.162Z,3.20
2019-03-18T21:24:08.406Z,3.10
2019-03-18T21:28:13.310Z,3.10
2019-03-18T21:32:19.263Z,3.00
2019-03-18T21:36:37.198Z,2.90
2019-03-18T21:40:30.698Z,2.90
2019-03-18T21:44:36.669Z,2.90
2019-03-18T21:48:41.557Z,2.90
2019-03-18T21:52:46.711Z,2.80
2019-03-18T21:56:51.652Z,2.80
2019-03-18T22:00:56.618Z,2.80
2019-03-18T22:05:01.606Z,2.80
2019-03-18T22:09:08.189Z,2.70
2019-03-18T22:13:13.215Z,2.80
2019-03-18T22:17:18.103Z,2.80
2019-03-18T22:21:23.107Z,2.80
2019-03-18T22:25:28.151Z,2.70
2019-03-18T22:29:33.127Z,2.70
2019-03-18T22:33:38.214Z,2.60
2019-03-18T22:37:43.203Z,2.50
2019-03-18T22:41:48.170Z,2.50
2019-03-18T22:45:53.206Z,2.40
2019-03-18T22:49:58.104Z,2.30
2019-03-18T22:54:03.262Z,2.20
2019-03-18T22:58:08.280Z,2.10
2019-03-18T23:02:13.178Z,2.00
2019-03-18T23:06:18.089Z,2.00
2019-03-18T23:10:23.285Z,2.00
2019-03-18T23:14:28.155Z,2.00
2019-03-18T23:18:33.172Z,2.10
2019-03-18T23:22:38.099Z,2.00
2019-03-18T23:26:43.157Z,2.10
2019-03-18T23:30:48.309Z,2.10
2019-03-18T23:34:53.660Z,2.10
2019-03-18T23:38:58.587Z,2.10
2019-03-18T23:43:03.638Z,2.00
2019-03-18T23:47:08.530Z,2.00
2019-03-18T23:51:13.553Z,1.90
2019-03-18T23:55:20.003Z,1.80
2019-03-18T23:59:25.360Z,1.80
